createdAt,value
2018-06-04T00:00:43.140Z,19.12
2018-06-04T00:01:43.146Z,19.12
2018-06-04T00:03:04.158Z,19.11
2018-06-04T00:03:43.153Z,19.04
2018-06-04T00:04:43.158Z,18.99
2018-06-04T00:05:43.160Z,18.93
2018-06-04T00:06:43.160Z,18.95
2018-06-04T00:07:43.164Z,18.93
2018-06-04T00:09:04.212Z,18.98
2018-06-04T00:09:43.168Z,18.93
2018-06-04T00:10:43.173Z,18.88
2018-06-04T00:11:43.173Z,18.92
2018-06-04T00:12:43.177Z,18.90
2018-06-04T00:13:43.178Z,18.89
2018-06-04T00:15:04.193Z,18.81
2018-06-04T00:15:43.185Z,18.80
2018-06-04T00:16:43.186Z,18.74
2018-06-04T00:17:43.192Z,18.78
2018-06-04T00:18:43.192Z,18.77
2018-06-04T00:19:43.197Z,18.74
2018-06-04T00:21:04.210Z,18.71
2018-06-04T00:21:43.223Z,18.66
2018-06-04T00:22:43.201Z,18.63
2018-06-04T00:23:43.205Z,18.73
2018-06-04T00:24:43.205Z,18.70
2018-06-04T00:25:43.217Z,18.71
2018-06-04T00:27:04.221Z,18.65
2018-06-04T00:27:43.218Z,18.73
2018-06-04T00:28:43.255Z,18.68
2018-06-04T00:29:43.222Z,18.75
2018-06-04T00:30:43.226Z,18.58
2018-06-04T00:31:43.225Z,18.62
2018-06-04T00:33:04.240Z,18.55
2018-06-04T00:33:43.231Z,18.53
2018-06-04T00:34:43.274Z,18.55
2018-06-04T00:35:43.238Z,18.50
2018-06-04T00:36:43.243Z,18.59
2018-06-04T00:37:43.249Z,18.52
2018-06-04T00:39:04.313Z,18.55
2018-06-04T00:39:43.247Z,18.53
2018-06-04T00:40:43.248Z,18.49
2018-06-04T00:41:43.253Z,18.49
2018-06-04T00:42:43.260Z,18.38
2018-06-04T00:43:43.257Z,18.34
2018-06-04T00:45:04.269Z,18.50
2018-06-04T00:45:43.265Z,18.43
2018-06-04T00:46:43.262Z,18.38
2018-06-04T00:47:43.270Z,18.38
2018-06-04T00:48:43.270Z,18.38
2018-06-04T00:49:43.270Z,18.41
2018-06-04T00:51:04.283Z,18.41
2018-06-04T00:51:43.276Z,18.38
2018-06-04T00:52:43.283Z,18.37
2018-06-04T00:53:43.288Z,18.35
2018-06-04T00:54:43.285Z,18.35
2018-06-04T00:55:43.292Z,18.37
2018-06-04T00:57:04.301Z,18.40
2018-06-04T00:57:43.298Z,18.38
2018-06-04T00:58:43.355Z,18.40
2018-06-04T00:59:43.306Z,18.43
2018-06-04T01:00:43.303Z,18.35
2018-06-04T01:01:43.305Z,18.28
2018-06-04T01:03:04.320Z,18.40
2018-06-04T01:03:43.311Z,18.33
2018-06-04T01:04:43.310Z,18.28
2018-06-04T01:05:43.315Z,18.26
2018-06-04T01:06:43.316Z,18.25
2018-06-04T01:07:43.322Z,18.26
2018-06-04T01:09:04.414Z,18.33
2018-06-04T01:09:43.931Z,18.28
2018-06-04T01:10:43.335Z,18.29
2018-06-04T01:11:43.331Z,18.23
2018-06-04T01:12:43.331Z,18.26
2018-06-04T01:13:43.328Z,18.22
2018-06-04T01:15:04.350Z,18.16
2018-06-04T01:15:43.337Z,18.16
2018-06-04T01:16:43.343Z,18.16
2018-06-04T01:17:43.343Z,18.10
2018-06-04T01:18:43.341Z,18.15
2018-06-04T01:19:43.346Z,18.15
2018-06-04T01:21:04.363Z,18.16
2018-06-04T01:21:43.352Z,18.13
2018-06-04T01:22:43.353Z,18.07
2018-06-04T01:23:43.358Z,18.13
2018-06-04T01:24:43.359Z,18.01
2018-06-04T01:25:43.362Z,18.00
2018-06-04T01:27:04.379Z,18.03
2018-06-04T01:27:43.367Z,18.03
2018-06-04T01:28:43.369Z,18.00
2018-06-04T01:29:43.371Z,18.04
2018-06-04T01:30:43.375Z,17.95
2018-06-04T01:31:43.383Z,17.89
2018-06-04T01:33:04.385Z,17.87
2018-06-04T01:33:43.387Z,17.87
2018-06-04T01:34:43.381Z,17.89
2018-06-04T01:35:43.382Z,17.87
2018-06-04T01:36:43.384Z,17.89
2018-06-04T01:37:43.388Z,17.83
2018-06-04T01:39:04.419Z,17.87
2018-06-04T01:39:43.398Z,17.83
2018-06-04T01:40:44.336Z,17.89
2018-06-04T01:41:43.398Z,17.85
2018-06-04T01:42:43.406Z,17.86
2018-06-04T01:43:43.400Z,17.87
2018-06-04T01:45:04.411Z,17.86
2018-06-04T01:45:43.409Z,17.87
2018-06-04T01:46:43.412Z,17.83
2018-06-04T01:47:43.417Z,17.82
2018-06-04T01:48:43.425Z,17.72
2018-06-04T01:49:43.418Z,17.78
2018-06-04T01:51:04.462Z,17.72
2018-06-04T01:51:43.419Z,17.82
2018-06-04T01:52:43.420Z,17.83
2018-06-04T01:53:43.434Z,17.71
2018-06-04T01:54:43.427Z,17.76
2018-06-04T01:55:43.429Z,17.78
2018-06-04T01:57:04.438Z,17.82
2018-06-04T01:57:43.433Z,17.83
2018-06-04T01:58:43.436Z,17.74
2018-06-04T01:59:43.433Z,17.87
2018-06-04T02:00:43.439Z,17.82
2018-06-04T02:01:43.453Z,17.79
2018-06-04T02:03:04.449Z,17.79
2018-06-04T02:03:43.443Z,17.76
2018-06-04T02:04:43.453Z,17.76
2018-06-04T02:05:43.449Z,17.86
2018-06-04T02:06:43.454Z,17.82
2018-06-04T02:07:43.453Z,17.83
2018-06-04T02:09:04.517Z,17.71
2018-06-04T02:09:43.456Z,17.71
2018-06-04T02:10:43.456Z,17.78
2018-06-04T02:11:43.462Z,17.78
2018-06-04T02:12:43.463Z,17.79
2018-06-04T02:13:43.460Z,17.76
2018-06-04T02:15:04.475Z,17.70
2018-06-04T02:15:43.485Z,17.74
2018-06-04T02:16:43.477Z,17.70
2018-06-04T02:17:43.479Z,17.76
2018-06-04T02:18:43.474Z,17.67
2018-06-04T02:19:43.475Z,17.71
2018-06-04T02:21:04.491Z,17.71
2018-06-04T02:21:43.480Z,17.65
2018-06-04T02:22:43.500Z,17.68
2018-06-04T02:23:43.485Z,17.64
2018-06-04T02:24:43.491Z,17.63
2018-06-04T02:25:43.501Z,17.63
2018-06-04T02:27:04.501Z,17.59
2018-06-04T02:27:43.493Z,17.60
2018-06-04T02:28:43.497Z,17.60
2018-06-04T02:29:43.499Z,17.52
2018-06-04T02:30:43.500Z,17.64
2018-06-04T02:31:43.506Z,17.56
2018-06-04T02:33:04.511Z,17.48
2018-06-04T02:33:43.520Z,17.49
2018-06-04T02:34:43.503Z,17.52
2018-06-04T02:35:43.507Z,17.57
2018-06-04T02:36:43.512Z,17.57
2018-06-04T02:37:43.520Z,17.49
2018-06-04T02:39:04.621Z,17.56
2018-06-04T02:39:43.520Z,17.57
2018-06-04T02:40:43.521Z,17.52
2018-06-04T02:41:43.523Z,17.60
2018-06-04T02:42:43.527Z,17.54
2018-06-04T02:43:43.526Z,17.51
2018-06-04T02:45:04.539Z,17.41
2018-06-04T02:45:43.539Z,17.56
2018-06-04T02:46:43.531Z,17.46
2018-06-04T02:47:43.542Z,17.46
2018-06-04T02:48:43.545Z,17.48
2018-06-04T02:49:43.542Z,17.38
2018-06-04T02:51:04.549Z,17.45
2018-06-04T02:51:43.547Z,17.46
2018-06-04T02:52:43.544Z,17.51
2018-06-04T02:53:43.593Z,17.51
2018-06-04T02:54:43.546Z,17.48
2018-06-04T02:55:43.546Z,17.48
2018-06-04T02:57:04.561Z,17.48
2018-06-04T02:57:43.551Z,17.48
2018-06-04T02:58:43.684Z,17.38
2018-06-04T02:59:43.558Z,17.45
2018-06-04T03:00:43.569Z,17.38
2018-06-04T03:01:43.559Z,17.42
2018-06-04T03:03:04.566Z,17.41
2018-06-04T03:03:43.561Z,17.41
2018-06-04T03:04:43.566Z,17.36
2018-06-04T03:05:43.566Z,17.38
2018-06-04T03:06:43.566Z,17.34
2018-06-04T03:07:43.572Z,17.30
2018-06-04T03:09:04.623Z,17.27
2018-06-04T03:09:43.576Z,17.30
2018-06-04T03:10:43.579Z,17.27
2018-06-04T03:11:43.578Z,17.33
2018-06-04T03:12:43.575Z,17.20
2018-06-04T03:13:43.580Z,17.24
2018-06-04T03:15:04.599Z,17.23
2018-06-04T03:15:43.585Z,17.26
2018-06-04T03:16:43.587Z,17.22
2018-06-04T03:17:43.586Z,17.24
2018-06-04T03:18:43.597Z,17.24
2018-06-04T03:19:43.591Z,17.16
2018-06-04T03:21:04.602Z,17.23
2018-06-04T03:21:43.593Z,17.20
2018-06-04T03:22:43.592Z,17.22
2018-06-04T03:23:43.595Z,17.30
2018-06-04T03:24:43.600Z,17.20
2018-06-04T03:25:43.600Z,17.22
2018-06-04T03:27:04.606Z,17.23
2018-06-04T03:27:43.609Z,17.24
2018-06-04T03:28:43.660Z,17.26
2018-06-04T03:29:43.610Z,17.20
2018-06-04T03:30:43.610Z,17.16
2018-06-04T03:31:43.616Z,17.19
2018-06-04T03:33:04.624Z,17.22
2018-06-04T03:33:43.613Z,17.20
2018-06-04T03:34:43.620Z,17.23
2018-06-04T03:35:43.618Z,17.20
2018-06-04T03:36:43.617Z,17.22
2018-06-04T03:37:43.621Z,17.20
2018-06-04T03:39:04.720Z,17.20
2018-06-04T03:39:43.624Z,17.24
2018-06-04T03:40:43.627Z,17.24
2018-06-04T03:41:43.626Z,17.29
2018-06-04T03:42:43.628Z,17.24
2018-06-04T03:43:43.880Z,17.24
2018-06-04T03:45:04.642Z,17.23
2018-06-04T03:45:43.632Z,17.24
2018-06-04T03:46:43.638Z,17.22
2018-06-04T03:47:43.636Z,17.23
2018-06-04T03:48:43.647Z,17.26
2018-06-04T03:49:43.648Z,17.23
2018-06-04T03:51:04.654Z,17.22
2018-06-04T03:51:43.642Z,17.27
2018-06-04T03:52:43.643Z,17.26
2018-06-04T03:53:43.648Z,17.27
2018-06-04T03:54:43.649Z,17.31
2018-06-04T03:55:43.647Z,17.36
2018-06-04T03:57:04.661Z,17.34
2018-06-04T03:57:43.652Z,17.39
2018-06-04T03:58:43.657Z,17.33
2018-06-04T03:59:43.657Z,17.39
2018-06-04T04:00:43.660Z,17.41
2018-06-04T04:01:43.670Z,17.39
2018-06-04T04:03:04.672Z,17.44
2018-06-04T04:03:43.661Z,17.49
2018-06-04T04:04:43.667Z,17.52
2018-06-04T04:05:43.665Z,17.51
2018-06-04T04:06:43.671Z,17.54
2018-06-04T04:07:43.673Z,17.48
2018-06-04T04:09:04.720Z,17.46
2018-06-04T04:09:43.684Z,17.57
2018-06-04T04:10:43.697Z,17.46
2018-06-04T04:11:43.675Z,17.51
2018-06-04T04:12:43.680Z,17.56
2018-06-04T04:13:43.681Z,17.54
2018-06-04T04:15:04.689Z,17.56
2018-06-04T04:15:43.690Z,17.57
2018-06-04T04:16:43.685Z,17.63
2018-06-04T04:17:43.690Z,17.60
2018-06-04T04:18:43.689Z,17.60
2018-06-04T04:19:43.691Z,17.64
2018-06-04T04:21:04.705Z,17.67
2018-06-04T04:21:43.699Z,17.65
2018-06-04T04:22:43.700Z,17.67
2018-06-04T04:23:43.699Z,17.68
2018-06-04T04:24:43.702Z,17.67
2018-06-04T04:25:43.706Z,17.76
2018-06-04T04:27:04.712Z,17.74
2018-06-04T04:27:43.707Z,17.79
2018-06-04T04:28:43.712Z,17.82
2018-06-04T04:29:43.714Z,17.79
2018-06-04T04:30:43.716Z,17.89
2018-06-04T04:31:43.711Z,17.82
2018-06-04T04:33:04.731Z,17.82
2018-06-04T04:33:43.721Z,17.89
2018-06-04T04:34:43.727Z,17.83
2018-06-04T04:35:43.725Z,17.83
2018-06-04T04:36:43.726Z,17.86
2018-06-04T04:37:43.736Z,17.86
2018-06-04T04:39:04.831Z,17.85
2018-06-04T04:39:43.730Z,17.90
2018-06-04T04:40:43.733Z,17.94
2018-06-04T04:41:43.745Z,17.97
2018-06-04T04:42:43.737Z,18.04
2018-06-04T04:43:43.739Z,18.10
2018-06-04T04:45:04.752Z,18.07
2018-06-04T04:45:44.607Z,18.07
2018-06-04T04:46:43.788Z,18.15
2018-06-04T04:47:43.782Z,18.13
2018-06-04T04:48:43.749Z,18.26
2018-06-04T04:49:43.746Z,18.26
2018-06-04T04:51:05.580Z,18.31
2018-06-04T04:51:43.944Z,18.38
2018-06-04T04:52:43.787Z,18.34
2018-06-04T04:53:43.764Z,18.40
2018-06-04T04:54:43.764Z,18.58
2018-06-04T04:55:43.764Z,18.62
2018-06-04T04:57:04.780Z,18.62
2018-06-04T04:57:43.772Z,18.74
2018-06-04T04:58:43.770Z,18.74
2018-06-04T04:59:43.797Z,18.78
2018-06-04T05:00:43.785Z,18.90
2018-06-04T05:01:43.786Z,18.93
2018-06-04T05:03:04.790Z,18.98
2018-06-04T05:03:43.837Z,19.04
2018-06-04T05:04:43.792Z,19.12
2018-06-04T05:05:43.792Z,19.16
2018-06-04T05:06:43.791Z,19.27
2018-06-04T05:07:43.793Z,19.41
2018-06-04T05:09:04.921Z,19.56
2018-06-04T05:09:43.801Z,19.77
2018-06-04T05:10:43.798Z,20.10
2018-06-04T05:11:43.804Z,20.22
2018-06-04T05:12:43.810Z,20.09
2018-06-04T05:13:43.811Z,20.06
2018-06-04T05:15:04.828Z,19.96
2018-06-04T05:15:43.819Z,19.99
2018-06-04T05:16:43.821Z,20.44
2018-06-04T05:17:43.824Z,20.72
2018-06-04T05:18:43.834Z,20.85
2018-06-04T05:19:43.827Z,20.92
2018-06-04T05:21:04.846Z,20.70
2018-06-04T05:21:43.836Z,20.85
2018-06-04T05:22:43.840Z,20.85
2018-06-04T05:23:43.841Z,20.87
2018-06-04T05:24:43.848Z,21.03
2018-06-04T05:25:43.848Z,21.29
2018-06-04T05:27:05.133Z,21.32
2018-06-04T05:27:43.860Z,21.29
2018-06-04T05:28:43.859Z,21.33
2018-06-04T05:29:43.865Z,21.40
2018-06-04T05:30:43.870Z,21.46
2018-06-04T05:31:43.891Z,21.52
2018-06-04T05:33:04.886Z,21.35
2018-06-04T05:33:43.878Z,21.29
2018-06-04T05:34:43.883Z,21.30
2018-06-04T05:35:43.888Z,21.30
2018-06-04T05:36:43.889Z,21.40
2018-06-04T05:37:43.892Z,21.33
2018-06-04T05:39:04.922Z,21.36
2018-06-04T05:39:43.903Z,21.32
2018-06-04T05:40:43.904Z,21.37
2018-06-04T05:41:43.910Z,21.32
2018-06-04T05:42:43.918Z,21.36
2018-06-04T05:43:43.917Z,21.37
2018-06-04T05:45:04.934Z,21.43
2018-06-04T05:45:43.933Z,21.39
2018-06-04T05:46:43.936Z,21.48
2018-06-04T05:47:43.938Z,21.42
2018-06-04T05:48:43.940Z,21.62
2018-06-04T05:49:43.948Z,21.91
2018-06-04T05:51:04.961Z,21.96
2018-06-04T05:51:43.951Z,22.02
2018-06-04T05:52:43.956Z,22.00
2018-06-04T05:53:43.981Z,22.08
2018-06-04T05:54:43.965Z,22.22
2018-06-04T05:55:43.967Z,22.29
2018-06-04T05:57:04.985Z,22.69
2018-06-04T05:57:43.981Z,22.94
2018-06-04T05:58:44.068Z,23.24
2018-06-04T05:59:43.985Z,23.39
2018-06-04T06:00:43.995Z,23.32
2018-06-04T06:01:44.037Z,23.15
2018-06-04T06:03:05.008Z,22.96
2018-06-04T06:03:44.005Z,22.87
2018-06-04T06:04:44.009Z,22.68
2018-06-04T06:05:44.017Z,22.63
2018-06-04T06:06:44.024Z,22.51
2018-06-04T06:07:44.025Z,22.63
2018-06-04T06:09:05.127Z,22.62
2018-06-04T06:09:44.057Z,22.69
2018-06-04T06:10:44.037Z,22.93
2018-06-04T06:11:44.041Z,23.18
2018-06-04T06:12:44.063Z,23.27
2018-06-04T06:13:44.051Z,23.28
2018-06-04T06:15:05.085Z,23.28
2018-06-04T06:15:44.063Z,23.17
2018-06-04T06:16:44.065Z,23.06
2018-06-04T06:17:44.073Z,23.02
2018-06-04T06:18:44.073Z,23.00
2018-06-04T06:19:44.115Z,22.87
2018-06-04T06:21:05.099Z,22.84
2018-06-04T06:21:44.084Z,22.87
2018-06-04T06:22:44.095Z,22.84
2018-06-04T06:23:44.092Z,22.75
2018-06-04T06:24:44.100Z,22.80
2018-06-04T06:25:44.108Z,22.69
2018-06-04T06:27:05.122Z,22.73
2018-06-04T06:27:44.118Z,22.63
2018-06-04T06:28:44.805Z,22.59
2018-06-04T06:29:44.133Z,22.68
2018-06-04T06:30:44.133Z,22.54
2018-06-04T06:31:44.140Z,22.55
2018-06-04T06:33:05.152Z,22.57
2018-06-04T06:33:44.153Z,22.48
2018-06-04T06:34:44.149Z,22.39
2018-06-04T06:35:44.157Z,22.33
2018-06-04T06:36:44.164Z,22.20
2018-06-04T06:37:44.188Z,22.17
2018-06-04T06:39:05.234Z,22.07
2018-06-04T06:39:44.191Z,22.04
2018-06-04T06:40:44.178Z,21.98
2018-06-04T06:41:44.183Z,22.08
2018-06-04T06:42:44.194Z,22.11
2018-06-04T06:43:44.189Z,22.10
2018-06-04T06:45:05.207Z,22.20
2018-06-04T06:45:44.202Z,22.18
2018-06-04T06:46:44.203Z,22.23
2018-06-04T06:47:44.210Z,22.20
2018-06-04T06:48:44.229Z,22.33
2018-06-04T06:49:44.219Z,22.35
2018-06-04T06:51:05.397Z,22.33
2018-06-04T06:51:44.269Z,22.28
2018-06-04T06:52:44.276Z,22.41
2018-06-04T06:53:44.240Z,22.44
2018-06-04T06:54:44.243Z,22.44
2018-06-04T06:55:44.464Z,22.36
2018-06-04T06:57:05.280Z,22.32
2018-06-04T06:57:44.731Z,22.38
2018-06-04T06:58:44.371Z,22.41
2018-06-04T06:59:44.265Z,22.41
2018-06-04T07:00:44.268Z,22.45
2018-06-04T07:01:44.305Z,22.30
2018-06-04T07:03:05.293Z,22.44
2018-06-04T07:03:44.279Z,22.44
2018-06-04T07:04:44.301Z,22.38
2018-06-04T07:05:44.289Z,22.30
2018-06-04T07:06:44.293Z,22.30
2018-06-04T07:07:44.301Z,22.29
2018-06-04T07:09:05.325Z,22.38
2018-06-04T07:09:44.307Z,22.36
2018-06-04T07:10:44.329Z,22.32
2018-06-04T07:11:44.314Z,22.29
2018-06-04T07:12:44.377Z,22.36
2018-06-04T07:13:44.330Z,22.28
2018-06-04T07:15:05.339Z,22.32
2018-06-04T07:15:44.339Z,22.28
2018-06-04T07:16:44.338Z,22.38
2018-06-04T07:17:44.345Z,22.32
2018-06-04T07:18:44.362Z,22.32
2018-06-04T07:19:44.607Z,22.28
2018-06-04T07:21:05.375Z,22.20
2018-06-04T07:21:44.356Z,22.13
2018-06-04T07:22:44.361Z,22.22
2018-06-04T07:23:44.366Z,22.15
2018-06-04T07:24:44.371Z,22.15
2018-06-04T07:25:44.376Z,22.22
2018-06-04T07:27:05.389Z,22.23
2018-06-04T07:27:44.384Z,22.32
2018-06-04T07:28:44.471Z,22.26
2018-06-04T07:29:44.392Z,22.35
2018-06-04T07:30:44.397Z,22.36
2018-06-04T07:31:44.402Z,22.32
2018-06-04T07:33:05.419Z,22.35
2018-06-04T07:33:44.419Z,22.30
2018-06-04T07:34:44.429Z,22.33
2018-06-04T07:35:44.420Z,22.36
2018-06-04T07:36:44.468Z,22.43
2018-06-04T07:37:44.430Z,22.32
2018-06-04T07:39:05.534Z,22.30
2018-06-04T07:39:44.439Z,22.28
2018-06-04T07:40:44.451Z,22.43
2018-06-04T07:41:44.443Z,22.36
2018-06-04T07:42:44.447Z,22.36
2018-06-04T07:43:44.450Z,22.33
2018-06-04T07:45:05.468Z,22.39
2018-06-04T07:45:44.467Z,22.53
2018-06-04T07:46:44.465Z,23.32
2018-06-04T07:47:44.469Z,23.50
2018-06-04T07:48:44.482Z,23.58
2018-06-04T07:49:44.485Z,23.54
2018-06-04T07:51:05.490Z,23.48
2018-06-04T07:51:44.502Z,23.39
2018-06-04T07:52:44.489Z,23.28
2018-06-04T07:53:44.495Z,23.21
2018-06-04T07:54:44.499Z,23.12
2018-06-04T07:55:44.696Z,23.13
2018-06-04T07:57:05.872Z,23.13
2018-06-04T07:57:44.520Z,22.98
2018-06-04T07:58:44.518Z,23.09
2018-06-04T07:59:44.518Z,23.17
2018-06-04T08:00:44.531Z,23.23
2018-06-04T08:01:44.534Z,23.15
2018-06-04T08:03:05.555Z,23.13
2018-06-04T08:03:44.596Z,23.21
2018-06-04T08:04:44.541Z,23.13
2018-06-04T08:05:44.546Z,23.13
2018-06-04T08:06:44.552Z,23.13
2018-06-04T08:07:44.559Z,23.25
2018-06-04T08:09:05.743Z,23.28
2018-06-04T08:09:44.783Z,23.23
2018-06-04T08:10:44.757Z,23.24
2018-06-04T08:11:44.579Z,23.24
2018-06-04T08:12:44.580Z,23.31
2018-06-04T08:13:44.589Z,23.28
2018-06-04T08:15:05.599Z,23.27
2018-06-04T08:15:45.124Z,23.34
2018-06-04T08:16:47.321Z,23.43
2018-06-04T08:17:44.602Z,23.46
2018-06-04T08:18:44.608Z,23.44
2018-06-04T08:19:44.614Z,23.48
2018-06-04T08:21:05.633Z,23.48
2018-06-04T08:21:46.724Z,23.50
2018-06-04T08:22:45.513Z,23.51
2018-06-04T08:23:44.667Z,23.61
2018-06-04T08:24:44.632Z,23.63
2018-06-04T08:25:44.638Z,23.74
2018-06-04T08:27:05.654Z,23.73
2018-06-04T08:27:44.686Z,23.76
2018-06-04T08:28:44.677Z,23.74
2018-06-04T08:29:44.659Z,23.78
2018-06-04T08:30:44.661Z,23.95
2018-06-04T08:31:44.671Z,24.16
2018-06-04T08:33:05.682Z,24.68
2018-06-04T08:33:44.675Z,25.21
2018-06-04T08:34:44.682Z,26.02
2018-06-04T08:35:45.052Z,26.90
2018-06-04T08:36:45.558Z,27.70
2018-06-04T08:37:44.716Z,28.15
2018-06-04T08:39:06.126Z,28.45
2018-06-04T08:39:44.705Z,28.81
2018-06-04T08:40:44.714Z,29.19
2018-06-04T08:41:44.977Z,29.68
2018-06-04T08:42:44.984Z,30.13
2018-06-04T08:43:44.730Z,30.77
2018-06-04T08:45:05.757Z,31.05
2018-06-04T08:45:44.798Z,31.22
2018-06-04T08:46:44.758Z,31.56
2018-06-04T08:47:45.395Z,31.77
2018-06-04T08:48:44.766Z,32.01
2018-06-04T08:49:44.778Z,31.36
2018-06-04T08:51:05.809Z,30.80
2018-06-04T08:51:44.797Z,30.13
2018-06-04T08:52:44.796Z,29.78
2018-06-04T08:53:44.834Z,29.23
2018-06-04T08:54:44.825Z,28.79
2018-06-04T08:55:44.827Z,28.49
2018-06-04T08:57:05.852Z,28.04
2018-06-04T08:57:45.084Z,27.64
2018-06-04T08:58:44.842Z,27.89
2018-06-04T08:59:44.850Z,27.74
2018-06-04T09:00:44.855Z,27.78
2018-06-04T09:01:44.867Z,28.49
2018-06-04T09:03:06.057Z,28.89
2018-06-04T09:03:44.882Z,29.34
2018-06-04T09:04:44.887Z,29.76
2018-06-04T09:05:44.897Z,30.48
2018-06-04T09:06:44.898Z,31.06
2018-06-04T09:07:44.917Z,31.84
2018-06-04T09:09:06.185Z,32.53
2018-06-04T09:09:44.929Z,33.11
2018-06-04T09:10:44.936Z,33.27
2018-06-04T09:11:44.940Z,33.71
2018-06-04T09:12:44.950Z,33.98
2018-06-04T09:13:44.961Z,34.32
2018-06-04T09:15:05.977Z,34.71
2018-06-04T09:15:45.013Z,34.93
2018-06-04T09:16:44.987Z,35.36
2018-06-04T09:17:44.994Z,35.44
2018-06-04T09:18:45.051Z,34.97
2018-06-04T09:19:45.029Z,34.24
2018-06-04T09:21:06.039Z,34.55
2018-06-04T09:21:45.105Z,34.20
2018-06-04T09:22:45.845Z,34.73
2018-06-04T09:23:45.060Z,35.11
2018-06-04T09:24:45.481Z,35.53
2018-06-04T09:25:45.083Z,36.12
2018-06-04T09:27:06.106Z,36.47
2018-06-04T09:27:45.097Z,37.01
2018-06-04T09:28:45.118Z,37.35
2018-06-04T09:29:45.120Z,37.70
2018-06-04T09:30:45.125Z,38.04
2018-06-04T09:31:45.177Z,38.20
2018-06-04T09:33:06.167Z,37.68
2018-06-04T09:33:45.176Z,37.15
2018-06-04T09:34:45.181Z,37.45
2018-06-04T09:35:45.187Z,37.67
2018-06-04T09:36:45.202Z,36.68
2018-06-04T09:37:45.213Z,37.02
2018-06-04T09:39:06.360Z,36.47
2018-06-04T09:39:45.237Z,36.12
2018-06-04T09:40:45.253Z,36.08
2018-06-04T09:41:45.262Z,36.51
2018-06-04T09:42:45.286Z,36.98
2018-06-04T09:43:45.283Z,37.48
2018-06-04T09:45:06.307Z,37.74
2018-06-04T09:45:45.311Z,37.96
2018-06-04T09:46:45.332Z,38.33
2018-06-04T09:47:45.366Z,38.79
2018-06-04T09:48:45.386Z,39.22
2018-06-04T09:49:45.362Z,39.12
2018-06-04T09:51:06.386Z,38.89
2018-06-04T09:51:45.401Z,37.58
2018-06-04T09:52:45.528Z,36.59
2018-06-04T09:53:45.425Z,35.79
2018-06-04T09:54:45.447Z,35.14
2018-06-04T09:55:45.517Z,34.73
2018-06-04T09:57:06.460Z,33.95
2018-06-04T09:57:45.539Z,34.33
2018-06-04T09:58:45.498Z,34.77
2018-06-04T09:59:45.500Z,35.08
2018-06-04T10:00:45.583Z,35.45
2018-06-04T10:01:45.599Z,36.02
2018-06-04T10:03:06.532Z,36.12
2018-06-04T10:03:45.586Z,36.02
2018-06-04T10:04:45.619Z,36.17
2018-06-04T10:05:45.609Z,36.39
2018-06-04T10:06:45.591Z,36.95
2018-06-04T10:07:45.601Z,37.75
2018-06-04T10:09:06.610Z,38.45
2018-06-04T10:09:45.679Z,38.96
2018-06-04T10:10:45.687Z,39.17
2018-06-04T10:11:45.656Z,39.36
2018-06-04T10:12:45.667Z,39.60
2018-06-04T10:13:45.694Z,39.30
2018-06-04T10:15:06.731Z,39.40
2018-06-04T10:15:45.711Z,39.14
2018-06-04T10:16:45.701Z,38.60
2018-06-04T10:17:45.717Z,37.71
2018-06-04T10:18:45.728Z,37.67
2018-06-04T10:19:45.745Z,38.09
2018-06-04T10:21:06.799Z,38.55
2018-06-04T10:21:45.812Z,39.18
2018-06-04T10:22:45.783Z,39.58
2018-06-04T10:23:45.797Z,39.97
2018-06-04T10:24:45.815Z,40.28
2018-06-04T10:25:45.827Z,40.75
2018-06-04T10:27:06.863Z,41.16
2018-06-04T10:27:45.895Z,41.71
2018-06-04T10:28:45.909Z,42.06
2018-06-04T10:29:45.887Z,42.13
2018-06-04T10:30:45.907Z,40.88
2018-06-04T10:31:45.913Z,39.44
2018-06-04T10:33:06.948Z,37.93
2018-06-04T10:33:45.996Z,37.17
2018-06-04T10:34:45.960Z,36.37
2018-06-04T10:35:45.982Z,36.36
2018-06-04T10:36:45.990Z,35.41
2018-06-04T10:37:46.023Z,35.29
2018-06-04T10:39:07.123Z,35.19
2018-06-04T10:39:46.028Z,34.83
2018-06-04T10:40:46.063Z,34.42
2018-06-04T10:41:46.054Z,33.94
2018-06-04T10:42:46.073Z,33.52
2018-06-04T10:43:46.078Z,33.15
2018-06-04T10:45:07.103Z,33.81
2018-06-04T10:45:46.137Z,34.40
2018-06-04T10:46:46.271Z,34.74
2018-06-04T10:47:46.126Z,35.18
2018-06-04T10:48:46.142Z,35.85
2018-06-04T10:49:46.150Z,36.58
2018-06-04T10:51:07.173Z,37.36
2018-06-04T10:51:46.175Z,37.65
2018-06-04T10:52:46.201Z,37.53
2018-06-04T10:53:46.200Z,37.21
2018-06-04T10:54:46.639Z,36.98
2018-06-04T10:55:46.222Z,36.79
2018-06-04T10:57:07.900Z,36.31
2018-06-04T10:57:46.251Z,35.44
2018-06-04T10:58:46.308Z,35.26
2018-06-04T10:59:46.282Z,36.12
2018-06-04T11:00:46.292Z,36.36
2018-06-04T11:01:46.301Z,36.76
2018-06-04T11:03:07.329Z,37.36
2018-06-04T11:03:46.331Z,37.90
2018-06-04T11:04:46.350Z,38.21
2018-06-04T11:05:46.416Z,38.04
2018-06-04T11:06:46.370Z,38.12
2018-06-04T11:07:46.383Z,38.48
2018-06-04T11:09:07.477Z,39.00
2018-06-04T11:09:46.460Z,39.58
2018-06-04T11:10:46.444Z,39.90
2018-06-04T11:11:46.443Z,40.30
2018-06-04T11:12:46.492Z,39.55
2018-06-04T11:13:46.474Z,39.00
2018-06-04T11:15:07.602Z,39.53
2018-06-04T11:15:46.673Z,39.86
2018-06-04T11:16:46.514Z,40.43
2018-06-04T11:17:46.527Z,40.09
2018-06-04T11:18:47.472Z,40.78
2018-06-04T11:19:47.433Z,41.33
2018-06-04T11:21:07.599Z,41.57
2018-06-04T11:21:46.719Z,41.77
2018-06-04T11:22:46.838Z,42.02
2018-06-04T11:23:46.628Z,42.36
2018-06-04T11:24:47.213Z,42.12
2018-06-04T11:25:46.709Z,41.55
2018-06-04T11:27:07.693Z,40.82
2018-06-04T11:27:46.958Z,39.70
2018-06-04T11:28:46.716Z,38.28
2018-06-04T11:29:46.736Z,37.13
2018-06-04T11:30:46.773Z,37.44
2018-06-04T11:31:46.986Z,37.86
2018-06-04T11:33:08.413Z,37.56
2018-06-04T11:33:50.427Z,37.37
2018-06-04T11:34:46.824Z,37.87
2018-06-04T11:35:46.831Z,38.48
2018-06-04T11:36:46.842Z,39.22
2018-06-04T11:37:46.855Z,39.55
2018-06-04T11:39:08.034Z,39.07
2018-06-04T11:39:46.875Z,38.79
2018-06-04T11:40:46.925Z,38.45
2018-06-04T11:41:46.908Z,38.73
2018-06-04T11:42:46.926Z,39.36
2018-06-04T11:43:46.987Z,39.97
2018-06-04T11:45:07.959Z,40.41
2018-06-04T11:45:46.972Z,40.81
2018-06-04T11:46:46.992Z,41.02
2018-06-04T11:47:47.005Z,41.47
2018-06-04T11:48:47.012Z,41.88
2018-06-04T11:49:47.021Z,42.32
2018-06-04T11:51:08.209Z,42.44
2018-06-04T11:51:47.061Z,42.81
2018-06-04T11:52:47.071Z,43.24
2018-06-04T11:53:47.090Z,42.95
2018-06-04T11:54:47.106Z,42.60
2018-06-04T11:55:47.166Z,42.44
2018-06-04T11:57:08.158Z,42.45
2018-06-04T11:57:47.236Z,41.91
2018-06-04T11:58:47.231Z,41.02
2018-06-04T11:59:47.191Z,40.00
2018-06-04T12:00:47.213Z,39.41
2018-06-04T12:01:48.921Z,39.06
2018-06-04T12:03:08.254Z,38.34
2018-06-04T12:03:47.259Z,37.39
2018-06-04T12:04:47.273Z,36.79
2018-06-04T12:05:47.288Z,36.01
2018-06-04T12:06:47.316Z,35.26
2018-06-04T12:07:47.317Z,34.51
2018-06-04T12:09:08.777Z,34.16
2018-06-04T12:09:47.347Z,33.98
2018-06-04T12:10:47.357Z,33.83
2018-06-04T12:11:47.437Z,33.69
2018-06-04T12:12:47.378Z,33.81
2018-06-04T12:13:47.425Z,34.66
2018-06-04T12:15:08.667Z,34.77
2018-06-04T12:15:47.418Z,34.13
2018-06-04T12:16:47.429Z,33.39
2018-06-04T12:17:47.442Z,32.56
2018-06-04T12:18:47.454Z,31.85
2018-06-04T12:19:47.469Z,31.46
2018-06-04T12:21:08.491Z,31.55
2018-06-04T12:21:47.486Z,31.59
2018-06-04T12:22:47.497Z,31.54
2018-06-04T12:23:47.512Z,31.27
2018-06-04T12:24:47.521Z,31.02
2018-06-04T12:25:47.531Z,31.03
2018-06-04T12:27:08.581Z,31.44
2018-06-04T12:27:47.555Z,32.46
2018-06-04T12:28:47.562Z,33.31
2018-06-04T12:29:47.573Z,33.99
2018-06-04T12:30:47.588Z,34.35
2018-06-04T12:31:47.604Z,34.27
2018-06-04T12:33:08.618Z,34.14
2018-06-04T12:33:47.811Z,34.74
2018-06-04T12:34:47.623Z,35.41
2018-06-04T12:35:47.626Z,36.02
2018-06-04T12:36:47.648Z,36.33
2018-06-04T12:37:47.653Z,36.89
2018-06-04T12:39:08.698Z,37.35
2018-06-04T12:39:47.680Z,37.84
2018-06-04T12:40:47.693Z,38.27
2018-06-04T12:41:47.701Z,38.77
2018-06-04T12:42:47.711Z,39.37
2018-06-04T12:43:47.755Z,39.81
2018-06-04T12:45:08.761Z,40.00
2018-06-04T12:45:47.748Z,39.38
2018-06-04T12:46:48.058Z,38.91
2018-06-04T12:47:48.298Z,38.19
2018-06-04T12:48:47.869Z,37.55
2018-06-04T12:49:47.802Z,36.79
2018-06-04T12:51:08.955Z,36.27
2018-06-04T12:51:47.824Z,36.24
2018-06-04T12:52:47.841Z,36.36